createdAt,value
2023-01-13T00:00:09.573Z,0
2023-01-13T00:01:09.536Z,0
2023-01-13T00:02:10.001Z,0
2023-01-13T00:03:10.070Z,0
2023-01-13T00:04:10.080Z,0
2023-01-13T00:05:10.396Z,0
2023-01-13T00:06:09.557Z,0
2023-01-13T00:07:09.555Z,0
2023-01-13T00:08:09.541Z,0
2023-01-13T00:09:09.561Z,0
2023-01-13T00:10:09.528Z,0
2023-01-13T00:11:09.518Z,0
2023-01-13T00:12:09.537Z,0
2023-01-13T00:13:09.525Z,0
2023-01-13T00:14:09.536Z,0
2023-01-13T00:15:09.520Z,0
2023-01-13T00:16:09.609Z,0
2023-01-13T00:17:09.627Z,0
2023-01-13T00:18:09.531Z,0
2023-01-13T00:19:09.533Z,0
2023-01-13T00:20:09.508Z,0
2023-01-13T00:21:09.539Z,0
2023-01-13T00:22:09.524Z,0
2023-01-13T00:23:09.529Z,0
2023-01-13T00:24:09.531Z,0
2023-01-13T00:25:09.524Z,0
2023-01-13T00:26:09.529Z,0
2023-01-13T00:27:09.523Z,0
2023-01-13T00:28:09.520Z,0
2023-01-13T00:29:09.543Z,0
2023-01-13T00:30:09.723Z,0
2023-01-13T00:31:09.549Z,0
2023-01-13T00:32:09.518Z,0
2023-01-13T00:33:09.534Z,0
2023-01-13T00:34:09.536Z,0
2023-01-13T00:35:09.541Z,0
2023-01-13T00:36:09.538Z,0
2023-01-13T00:37:09.537Z,0
2023-01-13T00:38:09.520Z,0
2023-01-13T00:39:09.512Z,0
2023-01-13T00:40:09.550Z,0
2023-01-13T00:41:09.533Z,0
2023-01-13T00:42:09.557Z,0
2023-01-13T00:43:09.534Z,0
2023-01-13T00:44:09.667Z,0
2023-01-13T00:45:09.524Z,0
2023-01-13T00:46:09.628Z,0
2023-01-13T00:47:09.535Z,0
2023-01-13T00:48:09.542Z,0
2023-01-13T00:49:09.520Z,0
2023-01-13T00:50:09.537Z,0
2023-01-13T00:51:09.531Z,0
2023-01-13T00:52:09.538Z,0
2023-01-13T00:53:09.553Z,0
2023-01-13T00:54:09.540Z,0
2023-01-13T00:55:09.553Z,0
2023-01-13T00:56:09.549Z,0
2023-01-13T00:57:09.535Z,0
2023-01-13T00:58:09.707Z,0
2023-01-13T00:59:09.533Z,0
2023-01-13T01:00:09.549Z,0
2023-01-13T01:01:09.622Z,0
2023-01-13T01:02:09.616Z,0
2023-01-13T01:03:09.541Z,0
2023-01-13T01:04:09.525Z,0
2023-01-13T01:05:09.521Z,0
2023-01-13T01:06:09.549Z,0
2023-01-13T01:07:09.556Z,0
2023-01-13T01:08:09.527Z,0
2023-01-13T01:09:09.522Z,0
2023-01-13T01:10:09.531Z,0
2023-01-13T01:11:09.517Z,0
2023-01-13T01:12:09.560Z,0
2023-01-13T01:13:09.524Z,0
2023-01-13T01:14:09.516Z,0
2023-01-13T01:15:09.579Z,0
2023-01-13T01:16:09.618Z,0
2023-01-13T01:17:09.571Z,0
2023-01-13T01:18:09.514Z,0
2023-01-13T01:19:09.518Z,0
2023-01-13T01:20:09.551Z,0
2023-01-13T01:21:09.515Z,0
2023-01-13T01:22:09.561Z,0
2023-01-13T01:23:09.567Z,0
2023-01-13T01:24:09.542Z,0
2023-01-13T01:25:09.536Z,0
2023-01-13T01:26:09.774Z,0
2023-01-13T01:27:10.019Z,0
2023-01-13T01:28:09.656Z,0
2023-01-13T01:29:09.526Z,0
2023-01-13T01:30:09.536Z,0
2023-01-13T01:31:09.555Z,0
2023-01-13T01:32:09.553Z,0
2023-01-13T01:33:09.528Z,0
2023-01-13T01:34:09.516Z,0
2023-01-13T01:35:09.514Z,0
2023-01-13T01:36:09.536Z,0
2023-01-13T01:37:09.605Z,0
2023-01-13T01:38:09.547Z,0
2023-01-13T01:39:09.563Z,0
2023-01-13T01:40:09.526Z,0
2023-01-13T01:41:09.527Z,0
2023-01-13T01:42:09.542Z,0
2023-01-13T01:43:09.547Z,0
2023-01-13T01:44:09.566Z,0
2023-01-13T01:45:09.563Z,0
2023-01-13T01:46:09.576Z,0
2023-01-13T01:47:09.560Z,0
2023-01-13T01:48:09.537Z,0
2023-01-13T01:49:09.530Z,0
2023-01-13T01:50:09.561Z,0
2023-01-13T01:51:09.590Z,0
2023-01-13T01:52:09.556Z,0
2023-01-13T01:53:09.585Z,0
2023-01-13T01:54:09.560Z,0
2023-01-13T01:55:09.543Z,0
2023-01-13T01:56:09.522Z,0
2023-01-13T01:57:09.521Z,0
2023-01-13T01:58:09.544Z,0
2023-01-13T01:59:09.541Z,0
2023-01-13T02:00:09.553Z,0
2023-01-13T02:01:09.754Z,0
2023-01-13T02:02:09.718Z,0
2023-01-13T02:03:09.562Z,0
2023-01-13T02:04:09.553Z,0
2023-01-13T02:05:09.528Z,0
2023-01-13T02:06:09.712Z,0
2023-01-13T02:07:09.572Z,0
2023-01-13T02:08:09.586Z,0
2023-01-13T02:09:09.523Z,0
2023-01-13T02:10:09.613Z,0
2023-01-13T02:11:09.577Z,0
2023-01-13T02:12:09.606Z,0
2023-01-13T02:13:09.553Z,0
2023-01-13T02:14:09.584Z,0
2023-01-13T02:15:09.597Z,0
2023-01-13T02:16:09.588Z,0
2023-01-13T02:17:09.513Z,0
2023-01-13T02:18:09.579Z,0
2023-01-13T02:19:09.699Z,0
2023-01-13T02:20:09.589Z,0
2023-01-13T02:21:09.645Z,0
2023-01-13T02:22:09.580Z,0
2023-01-13T02:23:09.517Z,0
2023-01-13T02:24:09.562Z,0
2023-01-13T02:25:09.510Z,0
2023-01-13T02:26:09.520Z,0
2023-01-13T02:27:09.595Z,0
2023-01-13T02:28:09.519Z,0
2023-01-13T02:29:09.551Z,0
2023-01-13T02:30:09.581Z,0
2023-01-13T02:31:09.512Z,0
2023-01-13T02:32:09.532Z,0
2023-01-13T02:33:09.729Z,0
2023-01-13T02:34:09.543Z,0
2023-01-13T02:35:09.547Z,0
2023-01-13T02:36:09.564Z,0
2023-01-13T02:37:09.515Z,0
2023-01-13T02:38:09.518Z,0
2023-01-13T02:39:09.526Z,0
2023-01-13T02:40:09.521Z,0
2023-01-13T02:41:09.525Z,0
2023-01-13T02:42:09.513Z,0
2023-01-13T02:43:09.546Z,0
2023-01-13T02:44:09.725Z,0
2023-01-13T02:45:09.537Z,0
2023-01-13T02:46:09.620Z,0
2023-01-13T02:47:09.711Z,0
2023-01-13T02:48:09.533Z,0
2023-01-13T02:49:09.612Z,0
2023-01-13T02:50:09.628Z,0
2023-01-13T02:51:09.684Z,0
2023-01-13T02:52:09.793Z,0
2023-01-13T02:53:09.913Z,0
2023-01-13T02:54:09.925Z,0
2023-01-13T02:55:09.880Z,0
2023-01-13T02:56:09.857Z,0
2023-01-13T02:57:10.311Z,0
2023-01-13T02:58:09.532Z,0
2023-01-13T02:59:09.777Z,0
2023-01-13T03:00:09.944Z,0
2023-01-13T03:01:09.706Z,0
2023-01-13T03:02:09.906Z,0
2023-01-13T03:03:09.496Z,0
2023-01-13T03:04:09.699Z,0
2023-01-13T03:05:09.511Z,0
2023-01-13T03:06:09.758Z,0
2023-01-13T03:07:09.554Z,0
2023-01-13T03:08:09.769Z,0
2023-01-13T03:09:09.536Z,0
2023-01-13T03:10:09.764Z,0
2023-01-13T03:11:09.505Z,0
2023-01-13T03:12:09.515Z,0
2023-01-13T03:13:09.558Z,0
2023-01-13T03:14:09.756Z,0
2023-01-13T03:15:09.511Z,0
2023-01-13T03:16:09.535Z,0
2023-01-13T03:17:09.498Z,0
2023-01-13T03:18:09.529Z,0
2023-01-13T03:19:09.499Z,0
2023-01-13T03:20:09.485Z,0
2023-01-13T03:21:09.484Z,0
2023-01-13T03:22:09.506Z,0
2023-01-13T03:23:09.498Z,0
2023-01-13T03:24:09.489Z,0
2023-01-13T03:25:09.494Z,0
2023-01-13T03:26:09.523Z,0
2023-01-13T03:27:09.518Z,0
2023-01-13T03:28:09.569Z,0
2023-01-13T03:29:09.501Z,0
2023-01-13T03:30:09.515Z,0
2023-01-13T03:31:09.590Z,0
2023-01-13T03:32:09.510Z,0
2023-01-13T03:33:09.545Z,0
2023-01-13T03:34:09.507Z,0
2023-01-13T03:35:09.538Z,0
2023-01-13T03:36:09.524Z,0
2023-01-13T03:37:09.494Z,0
2023-01-13T03:38:09.498Z,0
2023-01-13T03:39:09.517Z,0
2023-01-13T03:40:09.829Z,0
2023-01-13T03:41:09.504Z,0
2023-01-13T03:42:09.496Z,0
2023-01-13T03:43:09.543Z,0
2023-01-13T03:44:09.502Z,0
2023-01-13T03:45:09.500Z,0
2023-01-13T03:46:09.560Z,0
2023-01-13T03:47:09.501Z,0
2023-01-13T03:48:09.511Z,0
2023-01-13T03:49:09.498Z,0
2023-01-13T03:50:09.494Z,0
2023-01-13T03:51:09.500Z,0
2023-01-13T03:52:09.498Z,0
2023-01-13T03:53:09.518Z,0
2023-01-13T03:54:09.501Z,0
2023-01-13T03:55:09.503Z,0
2023-01-13T03:56:09.503Z,0
2023-01-13T03:57:09.490Z,0
2023-01-13T03:58:09.526Z,0
2023-01-13T03:59:09.491Z,0
2023-01-13T04:00:09.515Z,0
2023-01-13T04:01:09.581Z,0
2023-01-13T04:02:09.607Z,0
2023-01-13T04:03:09.527Z,0
2023-01-13T04:04:09.554Z,0
2023-01-13T04:05:09.515Z,0
2023-01-13T04:06:09.508Z,0
2023-01-13T04:07:09.523Z,0
2023-01-13T04:08:09.500Z,0
2023-01-13T04:09:09.492Z,0
2023-01-13T04:10:09.526Z,0
2023-01-13T04:11:09.517Z,0
2023-01-13T04:12:09.512Z,0
2023-01-13T04:13:09.495Z,0
2023-01-13T04:14:09.507Z,0
2023-01-13T04:15:09.552Z,0
2023-01-13T04:16:09.531Z,0
2023-01-13T04:17:09.506Z,0
2023-01-13T04:18:09.505Z,0
2023-01-13T04:19:09.510Z,0
2023-01-13T04:20:09.541Z,0
2023-01-13T04:21:09.510Z,0
2023-01-13T04:22:09.499Z,0
2023-01-13T04:23:09.513Z,0
2023-01-13T04:24:09.491Z,0
2023-01-13T04:25:09.534Z,0
2023-01-13T04:26:09.496Z,0
2023-01-13T04:27:09.496Z,0
2023-01-13T04:28:09.500Z,0
2023-01-13T04:29:09.497Z,0
2023-01-13T04:30:09.513Z,0
2023-01-13T04:31:09.589Z,0
2023-01-13T04:32:09.508Z,0
2023-01-13T04:33:09.528Z,0
2023-01-13T04:34:09.501Z,0
2023-01-13T04:35:09.519Z,0
2023-01-13T04:36:09.499Z,0
2023-01-13T04:37:09.517Z,0
2023-01-13T04:38:09.497Z,0
2023-01-13T04:39:09.489Z,0
2023-01-13T04:40:09.497Z,0
2023-01-13T04:41:09.503Z,0
2023-01-13T04:42:09.497Z,0
2023-01-13T04:43:09.526Z,0
2023-01-13T04:44:09.500Z,0
2023-01-13T04:45:09.503Z,0
2023-01-13T04:46:09.589Z,0
2023-01-13T04:47:09.500Z,0
2023-01-13T04:48:09.523Z,0
2023-01-13T04:49:09.494Z,0
2023-01-13T04:50:09.502Z,0
2023-01-13T04:51:09.489Z,0
2023-01-13T04:52:09.515Z,0
2023-01-13T04:53:09.512Z,0
2023-01-13T04:54:09.492Z,0
2023-01-13T04:55:09.492Z,0
2023-01-13T04:56:09.506Z,0
2023-01-13T04:57:09.505Z,0
2023-01-13T04:58:09.516Z,0
2023-01-13T04:59:09.515Z,0
2023-01-13T05:00:09.499Z,0
2023-01-13T05:01:09.914Z,0
2023-01-13T05:02:10.015Z,0
2023-01-13T05:03:09.528Z,0
2023-01-13T05:04:09.782Z,0
2023-01-13T05:05:09.552Z,0
2023-01-13T05:06:09.504Z,0
2023-01-13T05:07:09.495Z,0
2023-01-13T05:08:09.525Z,0
2023-01-13T05:09:09.498Z,0
2023-01-13T05:10:09.496Z,0
2023-01-13T05:11:09.493Z,0
2023-01-13T05:12:09.735Z,0
2023-01-13T05:13:09.545Z,0
2023-01-13T05:14:09.504Z,0
2023-01-13T05:15:09.501Z,0
2023-01-13T05:16:11.290Z,0
2023-01-13T05:17:09.508Z,0
2023-01-13T05:18:09.517Z,0
2023-01-13T05:19:09.497Z,0
2023-01-13T05:20:09.501Z,0
2023-01-13T05:21:09.497Z,0
2023-01-13T05:22:09.546Z,0
2023-01-13T05:23:09.520Z,0
2023-01-13T05:24:09.490Z,0
2023-01-13T05:25:09.502Z,0
2023-01-13T05:26:09.503Z,0
2023-01-13T05:27:09.501Z,0
2023-01-13T05:28:09.523Z,0
2023-01-13T05:29:09.506Z,0
2023-01-13T05:30:09.512Z,0
2023-01-13T05:31:09.605Z,0
2023-01-13T05:32:09.512Z,0
2023-01-13T05:33:09.617Z,0
2023-01-13T05:34:09.510Z,0
2023-01-13T05:35:09.501Z,0
2023-01-13T05:36:09.490Z,0
2023-01-13T05:37:09.498Z,0
2023-01-13T05:38:09.509Z,0
2023-01-13T05:39:09.494Z,0
2023-01-13T05:40:09.511Z,0
2023-01-13T05:41:09.491Z,0
2023-01-13T05:42:09.498Z,0
2023-01-13T05:43:09.498Z,0
2023-01-13T05:44:09.500Z,0
2023-01-13T05:45:09.505Z,0
2023-01-13T05:46:09.622Z,0
2023-01-13T05:47:09.507Z,0
2023-01-13T05:48:09.582Z,0
2023-01-13T05:49:09.499Z,0
2023-01-13T05:50:09.505Z,0
2023-01-13T05:51:09.511Z,0
2023-01-13T05:52:09.500Z,0
2023-01-13T05:53:09.518Z,0
2023-01-13T05:54:09.492Z,0
2023-01-13T05:55:09.490Z,0
2023-01-13T05:56:09.650Z,0
2023-01-13T05:57:09.491Z,0
2023-01-13T05:58:09.501Z,0
2023-01-13T05:59:09.494Z,0
2023-01-13T06:00:09.503Z,0
2023-01-13T06:01:09.613Z,0
2023-01-13T06:02:09.500Z,0
2023-01-13T06:03:09.558Z,0
2023-01-13T06:04:09.506Z,0
2023-01-13T06:05:09.497Z,0
2023-01-13T06:06:09.496Z,0
2023-01-13T06:07:09.503Z,0
2023-01-13T06:08:09.499Z,0
2023-01-13T06:09:09.508Z,0
2023-01-13T06:10:09.487Z,0
2023-01-13T06:11:09.493Z,0
2023-01-13T06:12:09.488Z,0
2023-01-13T06:13:09.494Z,0
2023-01-13T06:14:09.495Z,0
2023-01-13T06:15:09.499Z,0
2023-01-13T06:16:09.547Z,0
2023-01-13T06:17:09.547Z,0
2023-01-13T06:18:09.628Z,0
2023-01-13T06:19:09.780Z,0
2023-01-13T06:20:09.500Z,0
2023-01-13T06:21:09.528Z,0
2023-01-13T06:22:09.518Z,0
2023-01-13T06:23:09.536Z,0
2023-01-13T06:24:09.499Z,0
2023-01-13T06:25:09.510Z,0
2023-01-13T06:26:09.514Z,0
2023-01-13T06:27:09.508Z,0
2023-01-13T06:28:09.521Z,0
2023-01-13T06:29:09.507Z,0
2023-01-13T06:30:09.496Z,0
2023-01-13T06:31:09.665Z,0
2023-01-13T06:32:09.511Z,0
2023-01-13T06:33:09.507Z,0
2023-01-13T06:34:09.500Z,0
2023-01-13T06:35:09.500Z,0
2023-01-13T06:36:09.509Z,0
2023-01-13T06:37:09.528Z,0
2023-01-13T06:38:09.503Z,0
2023-01-13T06:39:09.520Z,0
2023-01-13T06:40:09.505Z,0
2023-01-13T06:41:09.705Z,0
2023-01-13T06:42:09.524Z,0
2023-01-13T06:43:09.501Z,0.23
2023-01-13T06:44:09.718Z,0.23
2023-01-13T06:45:09.917Z,0.23
2023-01-13T06:46:09.698Z,0.23
2023-01-13T06:47:10.029Z,0.23
2023-01-13T06:48:10.224Z,0.46
2023-01-13T06:49:09.518Z,0.46
2023-01-13T06:50:09.514Z,0.69
2023-01-13T06:51:09.542Z,0.69
2023-01-13T06:52:09.509Z,0.92
2023-01-13T06:53:09.510Z,1.15
2023-01-13T06:54:09.514Z,1.38
2023-01-13T06:55:09.520Z,1.61
2023-01-13T06:56:09.525Z,2.07
2023-01-13T06:57:09.514Z,2.3
2023-01-13T06:58:09.501Z,2.53
2023-01-13T06:59:09.513Z,2.99
2023-01-13T07:00:09.500Z,3.45
2023-01-13T07:01:09.635Z,3.91
2023-01-13T07:02:09.635Z,4.83
2023-01-13T07:03:09.510Z,5.52
2023-01-13T07:04:09.502Z,6.67
2023-01-13T07:05:09.501Z,8.28
2023-01-13T07:06:09.497Z,36.67
2023-01-13T07:07:09.495Z,11.67
2023-01-13T07:08:09.516Z,14.17
2023-01-13T07:09:09.501Z,16.67
2023-01-13T07:10:09.492Z,20
2023-01-13T07:11:09.511Z,22.5
2023-01-13T07:12:09.496Z,26.67
2023-01-13T07:13:09.511Z,30.83
2023-01-13T07:14:10.511Z,38.33
2023-01-13T07:15:10.775Z,41.67
2023-01-13T07:16:09.596Z,45.83
2023-01-13T07:17:09.506Z,50.83
2023-01-13T07:18:09.499Z,55
2023-01-13T07:19:09.495Z,60.83
2023-01-13T07:20:09.495Z,70.83
2023-01-13T07:21:09.532Z,77.5
2023-01-13T07:22:09.503Z,85.83
2023-01-13T07:23:09.501Z,94.17
2023-01-13T07:24:09.527Z,105
2023-01-13T07:25:09.513Z,118.33
2023-01-13T07:26:09.976Z,139.17
2023-01-13T07:27:10.048Z,144.17
2023-01-13T07:28:09.568Z,160
2023-01-13T07:29:09.806Z,183.33
2023-01-13T07:30:10.063Z,192.5
2023-01-13T07:31:09.603Z,201.67
2023-01-13T07:32:09.501Z,214.17
2023-01-13T07:33:09.661Z,225.83
2023-01-13T07:34:09.512Z,247.5
2023-01-13T07:35:09.507Z,260.83
2023-01-13T07:36:09.504Z,286.67
2023-01-13T07:37:09.522Z,305
2023-01-13T07:38:09.505Z,315
2023-01-13T07:39:09.513Z,332.5
2023-01-13T07:40:09.496Z,350.83
2023-01-13T07:41:09.507Z,361.67
2023-01-13T07:42:09.505Z,414.17
2023-01-13T07:43:09.497Z,425
2023-01-13T07:44:09.490Z,449.17
2023-01-13T07:45:12.138Z,469.17
2023-01-13T07:46:09.561Z,466.67
2023-01-13T07:47:09.500Z,515
2023-01-13T07:48:09.510Z,538.33
2023-01-13T07:49:09.497Z,630
2023-01-13T07:50:09.493Z,683.33
2023-01-13T07:51:09.509Z,728.33
2023-01-13T07:52:09.494Z,790
2023-01-13T07:53:09.511Z,834.17
2023-01-13T07:54:09.517Z,867.5
2023-01-13T07:55:09.514Z,837.5
2023-01-13T07:56:09.500Z,853.33
2023-01-13T07:57:09.558Z,879.17
2023-01-13T07:58:09.501Z,921.67
2023-01-13T07:59:09.499Z,1062.5
2023-01-13T08:00:11.429Z,980.83
2023-01-13T08:01:09.648Z,986.67
2023-01-13T08:02:09.647Z,985
2023-01-13T08:03:09.575Z,1022.5
2023-01-13T08:04:09.508Z,1176.67
2023-01-13T08:05:09.495Z,1090
2023-01-13T08:06:09.507Z,1003.33
2023-01-13T08:07:09.649Z,1007.5
2023-01-13T08:08:09.500Z,1017.5
2023-01-13T08:09:09.499Z,1035
2023-01-13T08:10:09.499Z,1040.83
2023-01-13T08:11:09.507Z,1076.67
2023-01-13T08:12:09.489Z,1089.17
2023-01-13T08:13:09.502Z,1109.17
2023-01-13T08:14:09.502Z,1202.5
2023-01-13T08:15:09.497Z,1163.33
2023-01-13T08:16:09.499Z,1169.17
2023-01-13T08:17:09.496Z,1305
2023-01-13T08:18:09.503Z,1247.5
2023-01-13T08:19:09.522Z,1137.5
2023-01-13T08:20:09.496Z,1135.83
2023-01-13T08:21:09.781Z,1141.67
2023-01-13T08:22:09.505Z,1222.5
2023-01-13T08:23:09.506Z,1271.67
2023-01-13T08:24:09.499Z,1315.83
2023-01-13T08:25:09.510Z,1377.5
2023-01-13T08:26:09.524Z,1472.5
2023-01-13T08:27:09.506Z,1656.67
2023-01-13T08:28:09.499Z,1884.17
2023-01-13T08:29:09.505Z,2382.5
2023-01-13T08:30:09.516Z,2469.17
2023-01-13T08:31:09.638Z,2527.5
2023-01-13T08:32:09.503Z,2428.33
2023-01-13T08:33:09.538Z,2206.67
2023-01-13T08:34:09.520Z,2159.17
2023-01-13T08:35:09.623Z,2255
2023-01-13T08:36:09.791Z,1803.33
2023-01-13T08:37:09.972Z,1750
2023-01-13T08:38:09.631Z,1828.33
2023-01-13T08:39:09.488Z,1804.17
2023-01-13T08:40:09.494Z,1625
2023-01-13T08:41:09.499Z,1695
2023-01-13T08:42:09.500Z,1694.17
2023-01-13T08:43:09.508Z,1891.67
2023-01-13T08:44:09.536Z,2097.5
2023-01-13T08:45:09.512Z,2152.5
2023-01-13T08:46:09.553Z,2193.33
2023-01-13T08:47:09.502Z,2309.17
2023-01-13T08:48:09.517Z,2080.83
2023-01-13T08:49:09.493Z,1993.33
2023-01-13T08:50:09.615Z,1905.83
2023-01-13T08:51:09.510Z,1804.17
2023-01-13T08:52:09.513Z,1995.83
2023-01-13T08:53:09.494Z,1899.17
2023-01-13T08:54:09.494Z,1798.33
2023-01-13T08:55:09.498Z,1796.67
2023-01-13T08:56:09.520Z,1786.67
2023-01-13T08:57:09.538Z,2026.67
2023-01-13T08:58:15.501Z,1853.33
2023-01-13T08:59:09.493Z,1754.17
2023-01-13T09:00:09.512Z,1777.5
2023-01-13T09:01:09.568Z,1835
2023-01-13T09:02:09.568Z,1916.67
2023-01-13T09:03:09.513Z,2150.83
2023-01-13T09:04:09.527Z,2253.33
2023-01-13T09:05:09.507Z,2536.67
2023-01-13T09:06:09.517Z,3432.5
2023-01-13T09:07:09.515Z,7195
2023-01-13T09:08:09.506Z,6299.17
2023-01-13T09:09:09.491Z,3931.67
2023-01-13T09:10:09.512Z,5129.17
2023-01-13T09:11:09.496Z,4725
2023-01-13T09:12:09.502Z,1727.5
2023-01-13T09:13:09.505Z,1762.5
2023-01-13T09:14:09.499Z,1945.83
2023-01-13T09:15:09.511Z,1983.33
2023-01-13T09:16:09.525Z,1945
2023-01-13T09:17:09.508Z,1871.67
2023-01-13T09:18:09.522Z,1997.5
2023-01-13T09:19:09.499Z,2450.83
2023-01-13T09:20:09.504Z,2961.67
2023-01-13T09:21:09.499Z,2845
2023-01-13T09:22:09.492Z,2606.67
2023-01-13T09:23:10.812Z,2521.67
2023-01-13T09:24:09.519Z,2605.83
2023-01-13T09:25:09.499Z,2860
2023-01-13T09:26:09.498Z,3148.33
2023-01-13T09:27:09.495Z,3143.33
2023-01-13T09:28:09.491Z,3626.67
2023-01-13T09:29:09.499Z,3632.5
2023-01-13T09:30:09.516Z,3502.5
2023-01-13T09:31:09.567Z,3195.83
2023-01-13T09:32:09.629Z,3460
2023-01-13T09:33:09.496Z,3200.83
2023-01-13T09:34:09.502Z,2936.67
2023-01-13T09:35:09.495Z,3266.67
2023-01-13T09:36:09.492Z,3446.67
2023-01-13T09:37:09.513Z,2937.5
2023-01-13T09:38:09.520Z,2575.83
2023-01-13T09:39:09.503Z,2875
2023-01-13T09:40:09.529Z,2422.5
2023-01-13T09:41:09.509Z,2430
2023-01-13T09:42:09.508Z,2783.33
2023-01-13T09:43:09.493Z,3028.33
2023-01-13T09:44:09.503Z,2907.5
2023-01-13T09:45:09.525Z,2711.67
2023-01-13T09:46:09.549Z,2669.17
2023-01-13T09:47:09.502Z,3164.17
2023-01-13T09:48:09.499Z,3370.83
2023-01-13T09:49:09.501Z,3420
2023-01-13T09:50:09.496Z,2846.67
2023-01-13T09:51:09.612Z,2529.17
2023-01-13T09:52:09.655Z,3097.5
2023-01-13T09:53:09.942Z,2975.83
2023-01-13T09:54:10.209Z,2606.67
2023-01-13T09:55:09.515Z,2855.83
2023-01-13T09:56:09.507Z,2891.67
2023-01-13T09:57:09.515Z,2845
2023-01-13T09:58:09.568Z,3316.67
2023-01-13T09:59:09.533Z,3674.17
2023-01-13T10:00:09.493Z,3542.5
2023-01-13T10:01:09.602Z,3335.83
2023-01-13T10:02:09.513Z,3119.17
2023-01-13T10:03:09.581Z,2742.5
2023-01-13T10:04:09.495Z,2340
2023-01-13T10:05:09.604Z,2250.83
2023-01-13T10:06:09.519Z,1819.17
2023-01-13T10:07:09.503Z,1951.67
2023-01-13T10:08:09.489Z,2489.17
2023-01-13T10:09:09.508Z,2666.67
2023-01-13T10:10:09.578Z,2320
2023-01-13T10:11:09.493Z,1931.67
2023-01-13T10:12:09.492Z,1850
2023-01-13T10:13:09.516Z,1811.67
2023-01-13T10:14:09.504Z,2388.33
2023-01-13T10:15:09.667Z,2320
2023-01-13T10:16:09.939Z,2287.5
2023-01-13T10:17:09.502Z,2570.83
2023-01-13T10:18:09.497Z,3583.33
2023-01-13T10:19:09.667Z,4535
2023-01-13T10:20:09.494Z,5079.17
2023-01-13T10:21:09.518Z,5140.83
2023-01-13T10:22:09.614Z,4296.67
2023-01-13T10:23:09.734Z,5042.5
2023-01-13T10:24:09.509Z,5423.33
2023-01-13T10:25:09.500Z,5565
2023-01-13T10:26:09.592Z,4741.67
2023-01-13T10:27:09.501Z,5700.83
2023-01-13T10:28:09.507Z,5467.5
2023-01-13T10:29:09.498Z,4844.17
2023-01-13T10:30:09.515Z,5511.67
2023-01-13T10:31:09.535Z,5624.17
2023-01-13T10:32:09.489Z,5723.33
2023-01-13T10:33:09.496Z,4295
2023-01-13T10:34:09.509Z,3606.67
2023-01-13T10:35:09.497Z,4109.17
2023-01-13T10:36:09.498Z,4720.83
2023-01-13T10:37:09.505Z,5690.83
2023-01-13T10:38:09.495Z,5188.33
2023-01-13T10:39:09.491Z,4762.5
2023-01-13T10:40:09.504Z,4885
2023-01-13T10:41:09.499Z,5463.33
2023-01-13T10:42:09.510Z,4959.17
2023-01-13T10:43:09.499Z,3970
2023-01-13T10:44:09.900Z,3825.83
2023-01-13T10:45:09.500Z,4349.17
2023-01-13T10:46:09.546Z,4175
2023-01-13T10:47:10.580Z,3879.17
2023-01-13T10:48:10.831Z,3166.67
2023-01-13T10:49:09.509Z,2817.5
2023-01-13T10:50:09.866Z,2944.17
2023-01-13T10:51:09.502Z,2633.33
2023-01-13T10:52:09.524Z,2897.5
2023-01-13T10:53:09.501Z,2878.33
2023-01-13T10:54:09.502Z,2546.67
2023-01-13T10:55:09.523Z,2891.67
2023-01-13T10:56:09.499Z,3327.5
2023-01-13T10:57:09.665Z,3296.67
2023-01-13T10:58:09.856Z,3245.83
2023-01-13T10:59:10.047Z,3555
2023-01-13T11:00:09.984Z,3517.5
2023-01-13T11:01:09.524Z,3465
2023-01-13T11:02:24.137Z,3299.17
2023-01-13T11:03:09.498Z,3850
2023-01-13T11:04:09.517Z,3561.67
2023-01-13T11:05:09.592Z,2939.17
2023-01-13T11:06:09.733Z,2893.33
2023-01-13T11:07:09.516Z,3070
2023-01-13T11:08:09.755Z,3758.33
2023-01-13T11:09:09.494Z,3059.17
2023-01-13T11:10:09.528Z,2834.17
2023-01-13T11:11:09.504Z,3208.33
2023-01-13T11:12:09.501Z,3475
2023-01-13T11:13:09.525Z,3474.17
2023-01-13T11:14:09.510Z,3487.5
2023-01-13T11:15:09.513Z,3698.33
2023-01-13T11:16:09.536Z,3788.33
2023-01-13T11:17:09.505Z,4370
2023-01-13T11:18:09.498Z,5573.33
2023-01-13T11:19:09.515Z,6223.33
2023-01-13T11:20:09.511Z,6980
2023-01-13T11:21:09.514Z,8912.5
2023-01-13T11:22:09.521Z,7460.83
2023-01-13T11:23:09.506Z,8668.33
2023-01-13T11:24:09.513Z,16257.5
2023-01-13T11:25:09.498Z,11948.33
2023-01-13T11:26:09.498Z,7646.67
2023-01-13T11:27:09.516Z,6005.83
2023-01-13T11:28:09.504Z,7023.33
2023-01-13T11:29:09.503Z,7415.83
2023-01-13T11:30:09.539Z,7767.5
2023-01-13T11:31:09.537Z,10495.83
2023-01-13T11:32:09.518Z,7295
2023-01-13T11:33:09.509Z,8675
2023-01-13T11:34:09.512Z,10197.5
2023-01-13T11:35:09.496Z,8679.17
2023-01-13T11:36:09.493Z,9784.17
2023-01-13T11:37:09.508Z,10091.67
2023-01-13T11:38:09.504Z,14843.33
2023-01-13T11:39:09.533Z,17840
2023-01-13T11:40:09.501Z,18556.67
2023-01-13T11:41:09.517Z,18585
2023-01-13T11:42:09.525Z,19760
2023-01-13T11:43:09.504Z,19063.33
2023-01-13T11:44:09.510Z,19574.17
2023-01-13T11:45:09.506Z,19044.17
2023-01-13T11:46:09.501Z,14968.33
2023-01-13T11:47:09.507Z,11160
2023-01-13T11:48:09.490Z,12316.67
2023-01-13T11:49:09.512Z,7297.5
2023-01-13T11:50:09.505Z,6318.33
2023-01-13T11:51:09.532Z,7043.33
2023-01-13T11:52:09.504Z,6987.5
2023-01-13T11:53:09.707Z,5370
2023-01-13T11:54:09.506Z,5780
2023-01-13T11:55:09.508Z,6081.67
2023-01-13T11:56:09.547Z,5839.17
2023-01-13T11:57:09.492Z,4908.33
2023-01-13T11:58:09.500Z,4639.17
2023-01-13T11:59:09.508Z,3802.5
2023-01-13T12:00:09.496Z,4191.67
2023-01-13T12:01:09.537Z,4730.83
2023-01-13T12:02:09.528Z,5495
2023-01-13T12:03:09.551Z,6278.33
2023-01-13T12:04:09.497Z,7585.83
2023-01-13T12:05:09.545Z,6910
2023-01-13T12:06:09.520Z,6493.33
2023-01-13T12:07:09.496Z,6269.17
2023-01-13T12:08:09.513Z,5969.17
2023-01-13T12:09:09.506Z,5700.83
2023-01-13T12:10:13.329Z,5772.5
2023-01-13T12:11:09.757Z,7142.5
2023-01-13T12:12:09.915Z,7730.83
2023-01-13T12:13:09.632Z,7310.83
2023-01-13T12:14:09.778Z,6515.83
2023-01-13T12:15:09.500Z,6202.5
2023-01-13T12:16:09.549Z,6113.33
2023-01-13T12:17:09.497Z,6016.67
2023-01-13T12:18:09.503Z,5490.83
2023-01-13T12:19:09.506Z,4625.83
2023-01-13T12:20:09.499Z,3960.83
2023-01-13T12:21:09.502Z,3339.17
2023-01-13T12:22:09.514Z,3075
2023-01-13T12:23:09.508Z,3083.33
2023-01-13T12:24:09.508Z,3055
2023-01-13T12:25:09.505Z,3867.5
2023-01-13T12:26:09.503Z,5098.33
2023-01-13T12:27:09.521Z,6907.5
2023-01-13T12:28:09.501Z,6854.17
2023-01-13T12:29:09.514Z,5648.33
2023-01-13T12:30:09.496Z,4941.67
2023-01-13T12:31:09.545Z,5405
2023-01-13T12:32:09.749Z,3768.33
2023-01-13T12:33:09.710Z,2361.67
2023-01-13T12:34:09.518Z,2552.5
2023-01-13T12:35:09.527Z,3050
2023-01-13T12:36:09.498Z,3114.17
2023-01-13T12:37:09.513Z,3805
2023-01-13T12:38:09.514Z,5458.33
2023-01-13T12:39:09.519Z,6746.67
2023-01-13T12:40:09.517Z,7378.33
2023-01-13T12:41:09.522Z,7090.83
2023-01-13T12:42:09.500Z,6916.67
2023-01-13T12:43:09.524Z,6665
2023-01-13T12:44:09.512Z,6305.83
2023-01-13T12:45:09.503Z,6050.83
2023-01-13T12:46:09.589Z,5885
2023-01-13T12:47:09.498Z,5940
2023-01-13T12:48:09.501Z,5908.33
2023-01-13T12:49:09.507Z,5940.83
2023-01-13T12:50:09.513Z,5792.5
2023-01-13T12:51:09.502Z,5682.5
2023-01-13T12:52:09.491Z,5455.83
2023-01-13T12:53:09.502Z,5268.33
2023-01-13T12:54:09.507Z,4582.5
2023-01-13T12:55:09.551Z,3858.33
2023-01-13T12:56:09.500Z,4106.67
2023-01-13T12:57:09.499Z,4211.67
2023-01-13T12:58:09.498Z,4665
2023-01-13T12:59:09.802Z,4906.67
2023-01-13T13:00:09.578Z,5248.33
2023-01-13T13:01:09.645Z,5525
2023-01-13T13:02:09.767Z,5091.67
2023-01-13T13:03:09.492Z,5184.17
2023-01-13T13:04:09.516Z,4922.5
2023-01-13T13:05:09.549Z,4917.5
2023-01-13T13:06:09.494Z,4597.5
2023-01-13T13:07:09.509Z,3673.33
2023-01-13T13:08:09.523Z,2890
2023-01-13T13:09:09.508Z,2536.67
2023-01-13T13:10:09.519Z,1912.5
2023-01-13T13:11:09.497Z,1701.67
2023-01-13T13:12:09.503Z,1971.67
2023-01-13T13:13:09.512Z,2049.17
2023-01-13T13:14:09.510Z,1765
2023-01-13T13:15:09.856Z,1411.67
2023-01-13T13:16:09.494Z,1318.33
2023-01-13T13:17:09.538Z,1267.5
2023-01-13T13:18:09.498Z,1208.33
2023-01-13T13:19:09.507Z,1323.33
2023-01-13T13:20:09.529Z,1997.5
2023-01-13T13:21:09.498Z,2583.33
2023-01-13T13:22:09.513Z,3007.5
2023-01-13T13:23:09.509Z,4354.17
2023-01-13T13:24:09.497Z,5546.67
2023-01-13T13:25:09.551Z,5132.5
2023-01-13T13:26:09.500Z,5140.83
2023-01-13T13:27:09.515Z,5273.33
2023-01-13T13:28:09.499Z,5499.17
2023-01-13T13:29:09.519Z,5714.17
2023-01-13T13:30:09.595Z,5578.33
2023-01-13T13:31:09.567Z,6692.5